createdAt,value
2022-10-11T00:01:05.415Z,9
2022-10-11T00:16:05.832Z,9
2022-10-11T00:31:05.117Z,7
2022-10-11T00:46:05.361Z,6
2022-10-11T01:01:05.263Z,5
2022-10-11T01:16:05.627Z,6
2022-10-11T01:31:05.537Z,7
2022-10-11T01:46:05.683Z,5
2022-10-11T02:01:05.600Z,4
2022-10-11T02:16:05.901Z,4
2022-10-11T02:31:05.143Z,4
2022-10-11T02:46:04.890Z,4
2022-10-11T03:01:04.824Z,4
2022-10-11T03:16:05.290Z,4
2022-10-11T03:31:04.877Z,5
2022-10-11T03:46:05.206Z,4
2022-10-11T04:01:05.208Z,5
2022-10-11T04:16:05.062Z,4
2022-10-11T04:31:05.057Z,5
2022-10-11T04:46:04.889Z,5
2022-10-11T05:01:05.033Z,7
2022-10-11T05:16:08.330Z,6
2022-10-11T05:31:04.779Z,8
2022-10-11T05:46:04.876Z,8
2022-10-11T06:01:04.682Z,24
2022-10-11T06:16:05.154Z,18
2022-10-11T06:31:05.276Z,12
2022-10-11T06:46:05.015Z,12
2022-10-11T07:01:05.793Z,12
2022-10-11T07:16:05.219Z,17
2022-10-11T07:31:05.326Z,13
2022-10-11T07:46:05.153Z,14
2022-10-11T08:01:05.453Z,12
2022-10-11T08:16:05.923Z,12
2022-10-11T08:31:04.859Z,13
2022-10-11T08:46:05.279Z,12
2022-10-11T09:01:05.401Z,13
2022-10-11T09:16:05.378Z,14
2022-10-11T09:31:05.233Z,14
2022-10-11T09:46:05.538Z,13
2022-10-11T10:01:07.816Z,13
2022-10-11T10:16:05.666Z,16
2022-10-11T10:31:05.289Z,12
2022-10-11T10:46:05.559Z,11
2022-10-11T11:01:05.222Z,9
2022-10-11T11:16:05.595Z,10
2022-10-11T11:31:05.172Z,5
2022-10-11T11:46:05.052Z,4
2022-10-11T12:01:05.498Z,5
2022-10-11T12:16:05.481Z,3
2022-10-11T12:31:05.099Z,3
2022-10-11T12:46:05.131Z,3
2022-10-11T13:01:05.329Z,2
2022-10-11T13:16:05.172Z,2
2022-10-11T13:31:05.414Z,3
2022-10-11T13:46:05.376Z,1
2022-10-11T14:01:05.380Z,2
2022-10-11T14:16:05.757Z,1
2022-10-11T14:31:05.250Z,2
2022-10-11T14:46:05.116Z,1
2022-10-11T15:01:04.896Z,1
2022-10-11T15:16:05.949Z,2
2022-10-11T15:31:05.319Z,2
2022-10-11T15:46:05.430Z,2
2022-10-11T16:01:05.676Z,4
2022-10-11T16:16:05.303Z,2
2022-10-11T16:31:04.934Z,3
2022-10-11T16:46:05.230Z,4
2022-10-11T17:01:05.281Z,9
2022-10-11T17:16:05.581Z,13
2022-10-11T17:31:05.609Z,15
2022-10-11T17:46:04.838Z,17
2022-10-11T18:01:05.955Z,18
2022-10-11T18:16:05.264Z,13
2022-10-11T18:31:08.714Z,13
2022-10-11T18:46:05.192Z,15
2022-10-11T19:01:05.421Z,20
2022-10-11T19:16:04.832Z,20
2022-10-11T19:31:05.390Z,24
2022-10-11T19:46:05.129Z,22
2022-10-11T20:01:05.165Z,21
2022-10-11T20:16:05.241Z,29
2022-10-11T20:31:05.211Z,31
2022-10-11T20:46:05.439Z,25
2022-10-11T21:01:05.151Z,20
2022-10-11T21:16:05.368Z,25
2022-10-11T21:31:05.654Z,25
2022-10-11T21:46:04.739Z,25
2022-10-11T22:01:04.801Z,18
2022-10-11T22:16:05.212Z,20
2022-10-11T22:31:05.226Z,22
2022-10-11T22:46:05.370Z,25
2022-10-11T23:01:05.717Z,24
2022-10-11T23:31:04.844Z,45
2022-10-11T23:46:04.942Z,40
